createdAt,value
2018-12-23T00:01:50.768Z,99.82
2018-12-23T00:04:19.094Z,99.00
2018-12-23T00:06:48.424Z,99.57
2018-12-23T00:09:16.712Z,98.70
2018-12-23T00:11:45.092Z,99.70
2018-12-23T00:14:12.448Z,99.23
2018-12-23T00:16:39.681Z,99.64
2018-12-23T00:19:06.917Z,99.65
2018-12-23T00:21:34.385Z,100.00
2018-12-23T00:24:01.661Z,99.37
2018-12-23T00:26:28.892Z,99.17
2018-12-23T00:28:56.147Z,98.90
2018-12-23T00:31:23.372Z,99.26
2018-12-23T00:33:50.596Z,99.17
2018-12-23T00:36:17.850Z,99.15
2018-12-23T00:38:45.138Z,98.52
2018-12-23T00:41:13.516Z,98.58
2018-12-23T00:43:40.777Z,98.83
2018-12-23T00:46:09.042Z,98.48
2018-12-23T00:48:36.388Z,98.26
2018-12-23T00:51:03.646Z,98.51
2018-12-23T00:53:30.864Z,98.36
2018-12-23T00:55:59.180Z,98.12
2018-12-23T00:58:26.396Z,97.35
2018-12-23T01:00:54.714Z,97.59
2018-12-23T01:03:21.948Z,97.58
2018-12-23T01:05:49.197Z,98.87
2018-12-23T01:08:16.472Z,98.45
2018-12-23T01:10:45.253Z,97.94
2018-12-23T01:13:12.476Z,98.35
2018-12-23T01:15:39.728Z,98.93
2018-12-23T01:18:06.960Z,99.53
2018-12-23T01:20:34.204Z,99.53
2018-12-23T01:23:01.432Z,99.46
2018-12-23T01:25:28.668Z,99.34
2018-12-23T01:27:55.895Z,98.92
2018-12-23T01:30:23.162Z,98.77
2018-12-23T01:32:50.421Z,98.95
2018-12-23T01:35:17.680Z,99.20
2018-12-23T01:37:44.925Z,99.75
2018-12-23T01:40:12.188Z,99.86
2018-12-23T01:42:39.452Z,100.00
2018-12-23T01:45:06.844Z,99.46
2018-12-23T01:47:34.080Z,99.68
2018-12-23T01:50:02.435Z,99.54
2018-12-23T01:52:29.650Z,99.43
2018-12-23T01:54:56.896Z,99.30
2018-12-23T01:57:24.125Z,99.28
2018-12-23T01:59:51.366Z,99.78
2018-12-23T02:02:20.701Z,99.77
2018-12-23T02:04:47.948Z,99.66
2018-12-23T02:07:15.203Z,100.00
2018-12-23T02:09:42.459Z,100.00
2018-12-23T02:12:09.704Z,99.87
2018-12-23T02:14:36.952Z,100.00
2018-12-23T02:17:04.192Z,100.00
2018-12-23T02:19:31.437Z,100.00
2018-12-23T02:21:58.696Z,100.00
2018-12-23T02:24:25.948Z,100.00
2018-12-23T02:26:53.176Z,100.00
2018-12-23T02:29:20.420Z,100.00
2018-12-23T02:31:47.652Z,100.00
2018-12-23T02:34:14.920Z,100.00
2018-12-23T02:36:43.586Z,100.00
2018-12-23T02:39:10.832Z,100.00
2018-12-23T02:41:38.066Z,100.00
2018-12-23T02:44:05.364Z,100.00
2018-12-23T02:46:32.619Z,100.00
2018-12-23T02:48:59.848Z,100.00
2018-12-23T02:51:28.126Z,100.00
2018-12-23T02:53:55.371Z,100.00
2018-12-23T02:56:22.607Z,100.00
2018-12-23T02:58:49.831Z,100.00
2018-12-23T03:01:17.064Z,100.00
2018-12-23T03:03:44.285Z,100.00
2018-12-23T03:06:11.536Z,100.00
2018-12-23T03:08:39.864Z,100.00
2018-12-23T03:11:07.102Z,100.00
2018-12-23T03:13:34.428Z,100.00
2018-12-23T03:16:01.670Z,100.00
2018-12-23T03:18:28.884Z,100.00
2018-12-23T03:20:56.108Z,100.00
2018-12-23T03:23:23.344Z,100.00
2018-12-23T03:25:50.563Z,100.00
2018-12-23T03:28:17.762Z,100.00
2018-12-23T03:30:44.986Z,100.00
2018-12-23T03:33:12.334Z,100.00
2018-12-23T03:35:39.559Z,100.00
2018-12-23T03:38:06.761Z,100.00
2018-12-23T03:40:33.984Z,100.00
2018-12-23T03:43:01.207Z,100.00
2018-12-23T03:45:28.436Z,100.00
2018-12-23T03:47:55.648Z,100.00
2018-12-23T03:50:22.864Z,100.00
2018-12-23T03:52:50.078Z,100.00
2018-12-23T03:55:17.301Z,100.00
2018-12-23T03:57:44.630Z,100.00
2018-12-23T04:00:11.878Z,100.00
2018-12-23T04:02:39.080Z,100.00
2018-12-23T04:05:06.284Z,100.00
2018-12-23T04:07:33.557Z,100.00
2018-12-23T04:10:00.776Z,100.00
2018-12-23T04:12:27.970Z,100.00
2018-12-23T04:14:55.183Z,100.00
2018-12-23T04:17:22.521Z,99.84
2018-12-23T04:19:49.733Z,100.00
2018-12-23T04:22:16.985Z,99.34
2018-12-23T04:24:44.188Z,98.22
2018-12-23T04:27:11.414Z,98.34
2018-12-23T04:29:38.912Z,98.43
2018-12-23T04:32:06.263Z,98.30
2018-12-23T04:34:34.500Z,98.15
2018-12-23T04:37:01.709Z,98.90
2018-12-23T04:39:28.921Z,98.50
2018-12-23T04:41:56.138Z,98.30
2018-12-23T04:44:23.338Z,98.34
2018-12-23T04:46:50.660Z,98.37
2018-12-23T04:49:17.888Z,99.03
2018-12-23T04:51:45.104Z,98.73
2018-12-23T04:54:12.304Z,99.02
2018-12-23T04:56:40.871Z,98.97
2018-12-23T04:59:08.091Z,99.10
2018-12-23T05:01:36.569Z,98.75
2018-12-23T05:04:03.866Z,98.93
2018-12-23T05:06:31.071Z,98.83
2018-12-23T05:08:58.279Z,98.34
2018-12-23T05:11:25.507Z,97.83
2018-12-23T05:13:52.720Z,98.05
2018-12-23T05:16:20.986Z,97.45
2018-12-23T05:18:48.188Z,97.18
2018-12-23T05:21:15.417Z,97.51
2018-12-23T05:23:42.632Z,97.83
2018-12-23T05:26:09.849Z,97.80
2018-12-23T05:28:37.116Z,97.36
2018-12-23T05:31:04.346Z,97.16
2018-12-23T05:33:31.536Z,97.00
2018-12-23T05:35:58.748Z,96.57
2018-12-23T05:38:25.950Z,96.50
2018-12-23T05:40:53.168Z,96.23
2018-12-23T05:43:20.354Z,96.63
2018-12-23T05:45:47.569Z,96.44
2018-12-23T05:48:18.662Z,95.80
2018-12-23T05:50:45.884Z,95.33
2018-12-23T05:53:13.080Z,95.06
2018-12-23T05:55:40.320Z,94.24
2018-12-23T05:58:07.588Z,93.91
2018-12-23T06:00:34.800Z,93.64
2018-12-23T06:03:01.992Z,92.74
2018-12-23T06:05:29.202Z,92.94
2018-12-23T06:07:56.400Z,92.24
2018-12-23T06:10:23.612Z,91.92
2018-12-23T06:12:50.812Z,92.28
2018-12-23T06:15:18.025Z,91.70
2018-12-23T06:17:45.249Z,91.89
2018-12-23T06:20:12.469Z,92.37
2018-12-23T06:22:39.692Z,92.42
2018-12-23T06:25:07.933Z,92.81
2018-12-23T06:27:35.136Z,93.61
2018-12-23T06:30:02.605Z,93.85
2018-12-23T06:32:29.828Z,93.87
2018-12-23T06:34:57.036Z,93.86
2018-12-23T06:37:24.270Z,94.23
2018-12-23T06:39:51.476Z,94.89
2018-12-23T06:42:18.684Z,94.99
2018-12-23T06:44:45.944Z,96.17
2018-12-23T06:47:13.179Z,95.91
2018-12-23T06:49:40.396Z,96.31
2018-12-23T06:52:07.614Z,95.70
2018-12-23T06:54:34.844Z,95.46
2018-12-23T06:57:02.050Z,95.38
2018-12-23T06:59:29.272Z,96.07
2018-12-23T07:01:56.584Z,96.36
2018-12-23T07:04:23.900Z,97.20
2018-12-23T07:06:51.109Z,97.31
2018-12-23T07:09:18.341Z,97.62
2018-12-23T07:11:45.555Z,97.41
2018-12-23T07:14:12.755Z,98.14
2018-12-23T07:16:40.020Z,97.97
2018-12-23T07:19:07.549Z,97.68
2018-12-23T07:21:34.748Z,97.59
2018-12-23T07:24:02.109Z,96.80
2018-12-23T07:26:29.325Z,96.15
2018-12-23T07:28:56.600Z,96.06
2018-12-23T07:31:23.852Z,95.60
2018-12-23T07:33:51.064Z,95.65
2018-12-23T07:36:18.273Z,94.88
2018-12-23T07:38:45.487Z,94.45
2018-12-23T07:41:12.676Z,95.30
2018-12-23T07:43:39.889Z,95.51
2018-12-23T07:46:07.222Z,95.15
2018-12-23T07:48:34.445Z,95.80
2018-12-23T07:51:01.800Z,94.92
2018-12-23T07:53:29.127Z,95.87
2018-12-23T07:55:56.332Z,95.82
2018-12-23T07:58:23.539Z,96.03
2018-12-23T08:00:50.764Z,96.04
2018-12-23T08:03:17.989Z,96.47
2018-12-23T08:05:45.276Z,94.82
2018-12-23T08:08:12.487Z,95.14
2018-12-23T08:10:39.724Z,94.57
2018-12-23T08:13:07.006Z,94.39
2018-12-23T08:15:34.277Z,95.15
2018-12-23T08:18:01.496Z,94.43
2018-12-23T08:20:28.829Z,94.51
2018-12-23T08:22:56.016Z,94.01
2018-12-23T08:25:23.228Z,94.32
2018-12-23T08:27:50.421Z,94.32
2018-12-23T08:30:17.636Z,95.72
2018-12-23T08:32:44.864Z,95.37
2018-12-23T08:35:12.076Z,95.94
2018-12-23T08:37:44.581Z,95.09
2018-12-23T08:40:08.500Z,95.17
2018-12-23T08:42:35.724Z,94.97
2018-12-23T08:45:03.189Z,96.05
2018-12-23T08:47:30.393Z,96.24
2018-12-23T08:49:57.603Z,96.40
2018-12-23T08:52:24.810Z,96.00
2018-12-23T08:54:52.001Z,96.29
2018-12-23T08:57:19.216Z,96.82
2018-12-23T08:59:46.413Z,97.50
2018-12-23T09:02:13.629Z,98.42
2018-12-23T09:04:41.048Z,98.35
2018-12-23T09:07:08.240Z,96.99
2018-12-23T09:09:35.600Z,96.64
2018-12-23T09:12:03.031Z,95.71
2018-12-23T09:14:30.236Z,94.66
2018-12-23T09:16:57.476Z,94.03
2018-12-23T09:19:24.773Z,93.51
2018-12-23T09:21:52.980Z,93.21
2018-12-23T09:24:20.536Z,92.71
2018-12-23T09:26:47.876Z,92.66
2018-12-23T09:29:15.080Z,91.48
2018-12-23T09:31:42.316Z,91.27
2018-12-23T09:34:09.568Z,91.57
2018-12-23T09:36:36.925Z,90.60
2018-12-23T09:39:05.604Z,89.31
2018-12-23T09:41:32.819Z,90.02
2018-12-23T09:44:00.031Z,90.07
2018-12-23T09:46:27.259Z,90.71
2018-12-23T09:48:54.489Z,91.39
2018-12-23T09:51:22.711Z,90.21
2018-12-23T09:53:49.915Z,90.67
2018-12-23T09:56:17.141Z,90.33
2018-12-23T09:59:01.297Z,91.20
2018-12-23T10:01:28.648Z,89.35
2018-12-23T10:03:55.848Z,89.96
2018-12-23T10:06:23.083Z,89.17
2018-12-23T10:08:50.298Z,90.22
2018-12-23T10:11:17.519Z,89.29
2018-12-23T10:13:44.744Z,89.82
2018-12-23T10:16:12.070Z,88.95
2018-12-23T10:18:39.385Z,89.20
2018-12-23T10:21:06.604Z,89.15
2018-12-23T10:23:33.808Z,88.38
2018-12-23T10:26:01.177Z,88.17
2018-12-23T10:28:28.395Z,88.71
2018-12-23T10:30:55.600Z,88.26
2018-12-23T10:33:22.864Z,88.79
2018-12-23T10:35:50.064Z,89.54
2018-12-23T10:38:18.482Z,90.34
2018-12-23T10:40:46.100Z,91.29
2018-12-23T10:43:13.340Z,91.35
2018-12-23T10:45:40.969Z,92.15
2018-12-23T10:48:08.197Z,91.51
2018-12-23T10:50:35.512Z,90.99
2018-12-23T10:53:02.736Z,91.76
2018-12-23T10:55:30.072Z,92.43
2018-12-23T10:57:57.416Z,92.32
2018-12-23T11:00:24.616Z,92.82
2018-12-23T11:02:51.949Z,92.32
2018-12-23T11:05:19.289Z,92.85
2018-12-23T11:07:46.512Z,91.72
2018-12-23T11:10:13.713Z,91.50
2018-12-23T11:12:41.048Z,91.58
2018-12-23T11:15:08.004Z,91.90
2018-12-23T11:17:35.330Z,91.71
2018-12-23T11:20:02.596Z,91.86
2018-12-23T11:22:29.812Z,92.58
2018-12-23T11:24:57.036Z,93.19
2018-12-23T11:27:24.370Z,92.64
2018-12-23T11:29:51.576Z,91.90
2018-12-23T11:32:18.788Z,92.48
2018-12-23T11:34:46.021Z,92.52
2018-12-23T11:37:13.360Z,91.66
2018-12-23T11:39:40.560Z,91.87
2018-12-23T11:42:07.932Z,91.42
2018-12-23T11:44:35.143Z,90.89
2018-12-23T11:47:02.352Z,91.18
2018-12-23T11:49:29.714Z,91.80
2018-12-23T11:51:56.931Z,91.44
2018-12-23T11:54:24.150Z,91.33
2018-12-23T11:56:51.392Z,90.25
2018-12-23T11:59:18.593Z,90.96
2018-12-23T12:01:45.833Z,90.00
2018-12-23T12:04:13.065Z,90.26
2018-12-23T12:06:40.260Z,91.54
2018-12-23T12:09:07.798Z,90.32
2018-12-23T12:11:36.231Z,90.11
2018-12-23T12:14:03.552Z,88.59
2018-12-23T12:16:30.781Z,88.69
2018-12-23T12:18:58.014Z,88.21
2018-12-23T12:21:25.233Z,87.63
2018-12-23T12:23:52.470Z,88.93
2018-12-23T12:26:19.676Z,89.82
2018-12-23T12:28:46.884Z,88.27
2018-12-23T12:31:14.124Z,88.28
2018-12-23T12:33:41.373Z,88.98
2018-12-23T12:36:08.585Z,88.24
2018-12-23T12:38:36.006Z,87.96
2018-12-23T12:41:03.521Z,88.21
2018-12-23T12:43:30.864Z,88.93
2018-12-23T12:46:00.697Z,87.77
2018-12-23T12:48:27.320Z,87.38
2018-12-23T12:50:54.553Z,87.14
2018-12-23T12:53:21.770Z,87.13
2018-12-23T12:55:49.140Z,86.73
2018-12-23T12:58:16.652Z,88.16
2018-12-23T13:00:43.869Z,87.88
2018-12-23T13:03:11.217Z,87.37
2018-12-23T13:05:38.469Z,86.84
2018-12-23T13:08:06.048Z,86.86
2018-12-23T13:10:33.333Z,87.62
2018-12-23T13:13:00.543Z,88.48
2018-12-23T13:15:27.907Z,89.40
2018-12-23T13:17:55.160Z,90.05
2018-12-23T13:20:22.383Z,90.93
2018-12-23T13:22:50.117Z,91.19
2018-12-23T13:25:34.436Z,90.37
2018-12-23T13:28:01.636Z,90.96
2018-12-23T13:30:28.859Z,91.27
2018-12-23T13:32:56.408Z,91.68
2018-12-23T13:35:23.623Z,91.44
2018-12-23T13:37:50.861Z,92.76
2018-12-23T13:40:27.836Z,92.71
2018-12-23T13:44:07.186Z,93.10
2018-12-23T13:47:03.044Z,92.12
2018-12-23T13:49:41.860Z,93.51
2018-12-23T13:52:17.173Z,93.27
2018-12-23T13:54:55.420Z,93.16
2018-12-23T13:58:32.525Z,93.14
2018-12-23T14:01:38.791Z,92.86
2018-12-23T14:04:52.605Z,94.19
2018-12-23T14:07:58.888Z,93.24
2018-12-23T14:11:05.433Z,93.46
2018-12-23T14:13:32.890Z,93.53
2018-12-23T14:16:20.051Z,93.68
2018-12-23T14:18:47.794Z,93.54
2018-12-23T14:21:19.251Z,94.31
2018-12-23T14:24:06.677Z,94.17
2018-12-23T14:26:34.146Z,93.95
2018-12-23T14:29:21.887Z,93.54
2018-12-23T14:32:21.170Z,93.26
2018-12-23T14:35:01.301Z,93.18
2018-12-23T14:49:54.184Z,93.15
2018-12-23T14:52:41.366Z,94.19
2018-12-23T14:55:28.843Z,95.15
2018-12-23T14:58:15.957Z,94.80
2018-12-23T15:03:56.770Z,94.04
2018-12-23T15:09:57.684Z,94.67
2018-12-23T15:12:44.582Z,93.66
2018-12-23T15:15:12.372Z,94.35
2018-12-23T15:20:21.079Z,94.92
2018-12-23T15:22:48.928Z,94.61
2018-12-23T15:25:16.654Z,94.58
2018-12-23T15:27:44.471Z,95.04
2018-12-23T15:30:31.899Z,95.11
2018-12-23T15:36:20.257Z,94.05
2018-12-23T15:39:07.371Z,93.72
2018-12-23T15:45:08.155Z,93.56
2018-12-23T15:56:50.784Z,95.69
2018-12-23T16:02:50.818Z,95.17
2018-12-23T16:05:38.479Z,94.17
2018-12-23T16:11:26.440Z,93.99
2018-12-23T16:19:38.372Z,93.81
2018-12-23T16:25:07.073Z,93.86
2018-12-23T16:31:08.561Z,94.12
2018-12-23T16:33:55.746Z,94.93
2018-12-23T16:36:36.290Z,95.68
2018-12-23T16:39:37.048Z,96.84
2018-12-23T16:42:16.906Z,95.67
2018-12-23T16:44:56.696Z,95.72
2018-12-23T16:47:44.190Z,95.97
2018-12-23T16:50:31.396Z,96.46
2018-12-23T16:53:05.426Z,96.63
2018-12-23T17:04:10.178Z,95.93
2018-12-23T17:15:42.492Z,97.03
2018-12-23T17:24:10.500Z,96.96
2018-12-23T17:26:57.997Z,97.70
2018-12-23T17:29:45.459Z,96.62
2018-12-23T17:35:25.050Z,96.06
2018-12-23T17:38:11.898Z,96.02
2018-12-23T17:49:22.486Z,94.99
2018-12-23T17:52:23.354Z,94.43
2018-12-23T17:55:03.599Z,93.93
2018-12-23T18:09:56.601Z,92.89
2018-12-23T18:12:24.574Z,93.58
2018-12-23T18:14:52.783Z,93.69
2018-12-23T18:20:41.065Z,94.84
2018-12-23T18:23:20.897Z,94.06
2018-12-23T18:26:08.796Z,93.74
2018-12-23T18:31:18.374Z,94.47
2018-12-23T18:33:58.642Z,94.92
2018-12-23T18:39:47.315Z,95.58
2018-12-23T18:42:34.685Z,94.83
2018-12-23T18:48:36.021Z,96.03
2018-12-23T18:51:16.304Z,96.58
2018-12-23T18:54:03.708Z,96.92
2018-12-23T18:57:04.537Z,96.65
2018-12-23T19:02:55.439Z,96.67
2018-12-23T19:05:42.667Z,95.98
2018-12-23T19:11:53.215Z,95.58
2018-12-23T19:14:59.742Z,95.78
2018-12-23T19:18:06.326Z,95.62
2018-12-23T19:21:12.814Z,95.02
2018-12-23T19:24:26.731Z,96.14
2018-12-23T19:27:33.994Z,96.41
2018-12-23T19:30:37.231Z,95.16
2018-12-23T19:33:43.439Z,96.34
2018-12-23T19:36:49.981Z,95.20
2018-12-23T19:39:29.637Z,95.78
2018-12-23T19:42:36.089Z,96.09
2018-12-23T19:45:30.234Z,96.86
2018-12-23T19:48:36.734Z,97.52
2018-12-23T19:51:43.205Z,95.79
2018-12-23T19:54:45.092Z,95.47
2018-12-23T19:57:51.347Z,95.89
2018-12-23T20:00:57.692Z,95.87
2018-12-23T20:04:04.156Z,95.21
2018-12-23T20:07:20.809Z,96.01
2018-12-23T20:10:29.655Z,96.45
2018-12-23T21:40:16.172Z,100.00
2018-12-23T21:43:17.703Z,97.48
2018-12-23T21:46:35.747Z,95.62
2018-12-23T21:49:43.346Z,94.33
2018-12-23T21:52:58.829Z,95.17
2018-12-23T21:55:58.089Z,92.96
2018-12-23T21:59:21.322Z,93.77
2018-12-23T22:02:25.615Z,92.72
2018-12-23T22:05:46.565Z,92.71
2018-12-23T22:09:00.318Z,93.18
2018-12-23T22:12:15.031Z,92.10
2018-12-23T22:14:42.322Z,91.65
2018-12-23T22:17:11.082Z,90.46
2018-12-23T22:19:38.534Z,90.54
2018-12-23T22:22:05.553Z,90.82
2018-12-23T22:24:32.561Z,89.98
2018-12-23T22:27:00.077Z,90.45
2018-12-23T22:29:27.604Z,91.06
2018-12-23T22:31:55.063Z,90.54
2018-12-23T22:34:22.842Z,91.05
2018-12-23T22:36:51.378Z,90.47
2018-12-23T22:39:18.995Z,91.77
2018-12-23T22:41:47.072Z,93.25
2018-12-23T22:44:14.529Z,91.99
2018-12-23T22:46:41.550Z,91.93
2018-12-23T22:49:08.598Z,92.38
2018-12-23T22:51:35.978Z,92.11
2018-12-23T22:54:04.040Z,91.59
2018-12-23T22:56:31.612Z,92.56
2018-12-23T22:58:59.039Z,91.73
2018-12-23T23:01:27.546Z,92.72
2018-12-23T23:03:55.309Z,91.83
2018-12-23T23:06:23.487Z,91.31
2018-12-23T23:08:51.146Z,91.10
2018-12-23T23:11:18.514Z,90.96
2018-12-23T23:13:45.854Z,90.90
2018-12-23T23:16:14.170Z,90.84
2018-12-23T23:18:41.833Z,90.22
2018-12-23T23:21:09.148Z,90.60
2018-12-23T23:23:36.821Z,91.19
2018-12-23T23:26:04.370Z,92.06
2018-12-23T23:28:31.548Z,93.32
2018-12-23T23:30:59.280Z,93.56
2018-12-23T23:33:27.389Z,93.36
2018-12-23T23:35:54.710Z,93.12
2018-12-23T23:38:22.062Z,92.39
2018-12-23T23:40:49.066Z,91.84
2018-12-23T23:43:16.083Z,91.66
2018-12-23T23:45:43.116Z,91.37
2018-12-23T23:48:10.602Z,91.42
2018-12-23T23:50:37.828Z,91.85
2018-12-23T23:53:06.907Z,91.72
2018-12-23T23:55:34.263Z,92.39
2018-12-23T23:58:01.645Z,92.17
